sensor_id;sensor_type;location;lat;lon;timestamp;pressure;altitude;pressure_sealevel;temperature;humidity
18201;BME280;9226;47.858;9.594;2023-03-21T00:01:13;95398.75;;;9.55;60.66
18201;BME280;9226;47.858;9.594;2023-03-21T00:03:39;95394.41;;;9.43;62.24
18201;BME280;9226;47.858;9.594;2023-03-21T00:06:08;95402.00;;;9.47;62.15
18201;BME280;9226;47.858;9.594;2023-03-21T00:08:35;95398.38;;;9.48;62.06
18201;BME280;9226;47.858;9.594;2023-03-21T00:11:02;95398.13;;;9.51;61.79
18201;BME280;9226;47.858;9.594;2023-03-21T00:13:29;95395.38;;;9.53;61.76
18201;BME280;9226;47.858;9.594;2023-03-21T00:16:23;95396.31;;;9.52;61.89
18201;BME280;9226;47.858;9.594;2023-03-21T00:18:48;95390.66;;;9.56;61.51
18201;BME280;9226;47.858;9.594;2023-03-21T00:21:20;95389.00;;;9.55;61.97
18201;BME280;9226;47.858;9.594;2023-03-21T00:23:46;95389.97;;;9.54;61.82
18201;BME280;9226;47.858;9.594;2023-03-21T00:26:13;95383.94;;;9.52;61.71
18201;BME280;9226;47.858;9.594;2023-03-21T00:28:40;95388.25;;;9.53;61.63
18201;BME280;9226;47.858;9.594;2023-03-21T00:31:06;95384.78;;;9.53;61.81
18201;BME280;9226;47.858;9.594;2023-03-21T00:33:33;95375.03;;;9.53;62.05
18201;BME280;9226;47.858;9.594;2023-03-21T00:35:59;95379.72;;;9.50;62.54
18201;BME280;9226;47.858;9.594;2023-03-21T00:38:24;95378.03;;;9.49;63.08
18201;BME280;9226;47.858;9.594;2023-03-21T00:40:50;95373.34;;;9.52;63.14
18201;BME280;9226;47.858;9.594;2023-03-21T00:43:16;95374.19;;;9.53;62.97
18201;BME280;9226;47.858;9.594;2023-03-21T00:45:44;95373.13;;;9.55;62.96
18201;BME280;9226;47.858;9.594;2023-03-21T00:48:10;95370.47;;;9.55;63.09
18201;BME280;9226;47.858;9.594;2023-03-21T00:50:36;95363.34;;;9.56;63.20
18201;BME280;9226;47.858;9.594;2023-03-21T00:53:03;95367.56;;;9.58;63.15
18201;BME280;9226;47.858;9.594;2023-03-21T00:55:29;95356.13;;;9.58;63.68
18201;BME280;9226;47.858;9.594;2023-03-21T00:57:54;95357.81;;;9.59;63.63
18201;BME280;9226;47.858;9.594;2023-03-21T01:00:19;95364.81;;;9.60;63.60
18201;BME280;9226;47.858;9.594;2023-03-21T01:02:45;95363.59;;;9.64;63.20
18201;BME280;9226;47.858;9.594;2023-03-21T01:05:28;95351.91;;;9.67;63.04
18201;BME280;9226;47.858;9.594;2023-03-21T01:08:14;95354.81;;;9.64;63.62
18201;BME280;9226;47.858;9.594;2023-03-21T01:10:43;95360.09;;;9.64;63.66
18201;BME280;9226;47.858;9.594;2023-03-21T01:13:09;95354.81;;;9.64;63.72
18201;BME280;9226;47.858;9.594;2023-03-21T01:15:36;95355.75;;;9.63;64.05
18201;BME280;9226;47.858;9.594;2023-03-21T01:18:02;95359.16;;;9.65;64.05
18201;BME280;9226;47.858;9.594;2023-03-21T01:20:28;95355.75;;;9.63;64.22
18201;BME280;9226;47.858;9.594;2023-03-21T01:22:54;95352.03;;;9.65;63.73
18201;BME280;9226;47.858;9.594;2023-03-21T01:25:20;95353.72;;;9.66;63.71
18201;BME280;9226;47.858;9.594;2023-03-21T01:27:45;95352.16;;;9.64;63.85
18201;BME280;9226;47.858;9.594;2023-03-21T01:30:11;95345.91;;;9.65;63.48
18201;BME280;9226;47.858;9.594;2023-03-21T01:32:37;95349.38;;;9.65;63.53
18201;BME280;9226;47.858;9.594;2023-03-21T01:35:02;95345.91;;;9.65;63.51
18201;BME280;9226;47.858;9.594;2023-03-21T01:37:28;95351.91;;;9.67;63.46
18201;BME280;9226;47.858;9.594;2023-03-21T01:39:53;95345.91;;;9.65;63.60
18201;BME280;9226;47.858;9.594;2023-03-21T01:42:19;95340.59;;;9.65;64.00
18201;BME280;9226;47.858;9.594;2023-03-21T01:45:03;95331.69;;;9.66;63.67
18201;BME280;9226;47.858;9.594;2023-03-21T01:47:30;95335.06;;;9.68;63.49
18201;BME280;9226;47.858;9.594;2023-03-21T01:49:57;95321.94;;;9.66;63.77
18201;BME280;9226;47.858;9.594;2023-03-21T01:52:31;95318.56;;;9.64;64.00
18201;BME280;9226;47.858;9.594;2023-03-21T01:54:59;95317.72;;;9.64;63.84
18201;BME280;9226;47.858;9.594;2023-03-21T01:57:33;95319.53;;;9.63;64.22
18201;BME280;9226;47.858;9.594;2023-03-21T02:00:04;95321.31;;;9.63;64.08
18201;BME280;9226;47.858;9.594;2023-03-21T02:02:39;95321.09;;;9.66;63.24
18201;BME280;9226;47.858;9.594;2023-03-21T02:05:40;95320.25;;;9.65;63.64
18201;BME280;9226;47.858;9.594;2023-03-21T02:08:08;95319.41;;;9.65;63.43
18201;BME280;9226;47.858;9.594;2023-03-21T02:10:34;95320.50;;;9.62;63.94
18201;BME280;9226;47.858;9.594;2023-03-21T02:13:03;95317.84;;;9.62;63.88
18201;BME280;9226;47.858;9.594;2023-03-21T02:15:33;95319.53;;;9.63;63.83
18201;BME280;9226;47.858;9.594;2023-03-21T02:18:21;95317.13;;;9.60;65.05
18201;BME280;9226;47.858;9.594;2023-03-21T02:26:54;95315.19;;;9.62;64.50
18201;BME280;9226;47.858;9.594;2023-03-21T02:45:19;95294.38;;;9.46;65.76
18201;BME280;9226;47.858;9.594;2023-03-21T02:47:58;95296.91;;;9.48;64.95
18201;BME280;9226;47.858;9.594;2023-03-21T02:50:48;95288.97;;;9.48;65.14
18201;BME280;9226;47.858;9.594;2023-03-21T02:53:18;95285.22;;;9.50;64.46
18201;BME280;9226;47.858;9.594;2023-03-21T02:55:45;95292.22;;;9.51;64.57
18201;BME280;9226;47.858;9.594;2023-03-21T02:58:16;95294.03;;;9.51;64.85
18201;BME280;9226;47.858;9.594;2023-03-21T03:00:44;95297.50;;;9.51;64.65
18201;BME280;9226;47.858;9.594;2023-03-21T03:03:13;95292.44;;;9.48;64.99
18201;BME280;9226;47.858;9.594;2023-03-21T03:05:59;95290.78;;;9.47;65.72
18201;BME280;9226;47.858;9.594;2023-03-21T03:11:25;95282.47;;;9.40;65.77
18201;BME280;9226;47.858;9.594;2023-03-21T03:19:10;95284.75;;;9.45;64.85
18201;BME280;9226;47.858;9.594;2023-03-21T03:21:47;95278.63;;;9.45;65.24
18201;BME280;9226;47.858;9.594;2023-03-21T03:24:16;95281.50;;;9.41;65.24
18201;BME280;9226;47.858;9.594;2023-03-21T03:29:17;95279.22;;;9.37;65.77
18201;BME280;9226;47.858;9.594;2023-03-21T03:31:49;95284.75;;;9.34;65.96
18201;BME280;9226;47.858;9.594;2023-03-21T03:34:18;95279.47;;;9.34;65.53
18201;BME280;9226;47.858;9.594;2023-03-21T03:36:47;95280.41;;;9.33;65.67
18201;BME280;9226;47.858;9.594;2023-03-21T03:39:17;95282.59;;;9.28;66.12
18201;BME280;9226;47.858;9.594;2023-03-21T03:41:51;95286.94;;;9.29;66.26
18201;BME280;9226;47.858;9.594;2023-03-21T03:44:19;95288.72;;;9.28;66.28
18201;BME280;9226;47.858;9.594;2023-03-21T03:46:52;95288.13;;;9.24;66.37
18201;BME280;9226;47.858;9.594;2023-03-21T03:49:24;95283.81;;;9.23;66.46
18201;BME280;9226;47.858;9.594;2023-03-21T03:52:17;95290.28;;;9.19;67.22
18201;BME280;9226;47.858;9.594;2023-03-21T03:54:47;95298.94;;;9.21;66.33
18201;BME280;9226;47.858;9.594;2023-03-21T03:57:14;95291.25;;;9.18;66.61
18201;BME280;9226;47.858;9.594;2023-03-21T03:59:42;95291.47;;;9.15;66.94
18201;BME280;9226;47.858;9.594;2023-03-21T04:02:08;95291.47;;;9.15;66.70
18201;BME280;9226;47.858;9.594;2023-03-21T04:04:33;95288.72;;;9.17;66.29
18201;BME280;9226;47.858;9.594;2023-03-21T04:06:59;95295.81;;;9.16;66.39
18201;BME280;9226;47.858;9.594;2023-03-21T04:09:27;95289.81;;;9.14;66.55
18201;BME280;9226;47.858;9.594;2023-03-21T04:11:53;95289.06;;;9.12;66.97
18201;BME280;9226;47.858;9.594;2023-03-21T04:14:19;95288.47;;;9.09;67.25
18201;BME280;9226;47.858;9.594;2023-03-21T04:16:45;95288.47;;;9.09;67.34
18201;BME280;9226;47.858;9.594;2023-03-21T04:19:10;95287.66;;;9.08;67.42
18201;BME280;9226;47.858;9.594;2023-03-21T04:21:36;95285.84;;;9.09;67.13
18201;BME280;9226;47.858;9.594;2023-03-21T04:24:01;95286.66;;;9.09;66.97
18201;BME280;9226;47.858;9.594;2023-03-21T04:26:27;95285.72;;;9.10;66.92
18201;BME280;9226;47.858;9.594;2023-03-21T04:28:58;95285.13;;;9.07;67.20
18201;BME280;9226;47.858;9.594;2023-03-21T04:31:26;95284.41;;;9.04;67.71
18201;BME280;9226;47.858;9.594;2023-03-21T04:33:55;95278.25;;;9.04;67.93
18201;BME280;9226;47.858;9.594;2023-03-21T04:36:26;95286.44;;;9.01;68.09
18201;BME280;9226;47.858;9.594;2023-03-21T04:38:58;95277.78;;;8.99;68.01
18201;BME280;9226;47.858;9.594;2023-03-21T04:41:28;95285.47;;;9.02;67.81
18201;BME280;9226;47.858;9.594;2023-03-21T04:43:53;95284.41;;;9.04;67.56
18201;BME280;9226;47.858;9.594;2023-03-21T04:46:20;95286.31;;;9.02;68.02
18201;BME280;9226;47.858;9.594;2023-03-21T04:48:45;95286.31;;;9.02;67.92
18201;BME280;9226;47.858;9.594;2023-03-21T04:51:11;95281.88;;;9.03;67.80
18201;BME280;9226;47.858;9.594;2023-03-21T04:53:37;95280.41;;;8.99;68.12
18201;BME280;9226;47.858;9.594;2023-03-21T04:56:04;95291.97;;;8.98;68.22
18201;BME280;9226;47.858;9.594;2023-03-21T04:58:30;95285.94;;;8.96;68.17
18201;BME280;9226;47.858;9.594;2023-03-21T05:00:56;95283.41;;;8.94;68.29
18201;BME280;9226;47.858;9.594;2023-03-21T05:03:21;95284.25;;;8.95;68.25
18201;BME280;9226;47.858;9.594;2023-03-21T05:05:47;95287.13;;;8.92;68.41
18201;BME280;9226;47.858;9.594;2023-03-21T05:08:13;95288.22;;;8.89;68.59
18201;BME280;9226;47.858;9.594;2023-03-21T05:10:39;95286.53;;;8.88;68.57
18201;BME280;9226;47.858;9.594;2023-03-21T05:13:05;95290.00;;;8.88;68.65
18201;BME280;9226;47.858;9.594;2023-03-21T05:15:30;95286.66;;;8.86;68.88
18201;BME280;9226;47.858;9.594;2023-03-21T05:17:56;95280.66;;;8.84;68.86
18201;BME280;9226;47.858;9.594;2023-03-21T05:20:23;95280.41;;;8.87;68.69
18201;BME280;9226;47.858;9.594;2023-03-21T05:22:49;95277.66;;;8.89;68.69
18201;BME280;9226;47.858;9.594;2023-03-21T05:25:16;95274.88;;;8.91;68.55
18201;BME280;9226;47.858;9.594;2023-03-21T05:27:45;95280.19;;;8.91;68.61
18201;BME280;9226;47.858;9.594;2023-03-21T05:30:18;95279.44;;;8.88;68.79
18201;BME280;9226;47.858;9.594;2023-03-21T05:32:43;95288.13;;;8.91;68.80
18201;BME280;9226;47.858;9.594;2023-03-21T05:35:09;95282.94;;;8.89;68.84
18201;BME280;9226;47.858;9.594;2023-03-21T05:37:35;95279.94;;;8.94;68.59
18201;BME280;9226;47.858;9.594;2023-03-21T05:40:01;95280.91;;;8.93;68.79
18201;BME280;9226;47.858;9.594;2023-03-21T05:42:26;95268.25;;;8.96;68.39
18201;BME280;9226;47.858;9.594;2023-03-21T05:44:52;95275.13;;;8.99;68.55
18201;BME280;9226;47.858;9.594;2023-03-21T05:47:17;95285.72;;;8.99;68.50
18201;BME280;9226;47.858;9.594;2023-03-21T05:49:44;95281.88;;;9.03;68.36
18201;BME280;9226;47.858;9.594;2023-03-21T05:52:09;95278.97;;;9.06;68.54
18201;BME280;9226;47.858;9.594;2023-03-21T05:54:35;95285.84;;;9.09;68.48
18201;BME280;9226;47.858;9.594;2023-03-21T05:57:02;95296.31;;;9.10;68.67
18201;BME280;9226;47.858;9.594;2023-03-21T05:59:27;95292.34;;;9.16;68.74
18201;BME280;9226;47.858;9.594;2023-03-21T06:01:53;95280.78;;;9.17;68.80
18201;BME280;9226;47.858;9.594;2023-03-21T06:04:18;95278.28;;;9.27;68.53
18201;BME280;9226;47.858;9.594;2023-03-21T06:06:44;95279.59;;;9.32;68.66
18201;BME280;9226;47.858;9.594;2023-03-21T06:09:09;95283.44;;;9.39;68.35
18201;BME280;9226;47.858;9.594;2023-03-21T06:11:36;95278.97;;;9.40;68.85
18201;BME280;9226;47.858;9.594;2023-03-21T06:14:02;95279.91;;;9.50;68.56
18201;BME280;9226;47.858;9.594;2023-03-21T06:16:28;95284.72;;;9.56;68.62
18201;BME280;9226;47.858;9.594;2023-03-21T06:18:54;95285.06;;;9.74;67.85
18201;BME280;9226;47.858;9.594;2023-03-21T06:21:20;95281.06;;;9.80;67.90
18201;BME280;9226;47.858;9.594;2023-03-21T06:23:46;95284.22;;;9.85;68.17
18201;BME280;9226;47.858;9.594;2023-03-21T06:26:12;95282.50;;;9.95;67.76
18201;BME280;9226;47.858;9.594;2023-03-21T06:28:38;95285.84;;;9.98;68.33
18201;BME280;9226;47.858;9.594;2023-03-21T06:31:04;95286.22;;;9.93;68.69
18201;BME280;9226;47.858;9.594;2023-03-21T06:33:29;95288.63;;;10.07;67.69
18201;BME280;9226;47.858;9.594;2023-03-21T06:35:57;95297.59;;;10.16;67.48
18201;BME280;9226;47.858;9.594;2023-03-21T06:38:23;95290.72;;;10.25;67.46
18201;BME280;9226;47.858;9.594;2023-03-21T06:40:49;95290.56;;;10.38;67.22
18201;BME280;9226;47.858;9.594;2023-03-21T06:43:15;95302.97;;;10.37;67.58
18201;BME280;9226;47.858;9.594;2023-03-21T06:45:41;95298.69;;;10.57;67.08
18201;BME280;9226;47.858;9.594;2023-03-21T06:48:06;95299.13;;;10.62;67.07
18201;BME280;9226;47.858;9.594;2023-03-21T06:50:32;95304.78;;;10.69;66.94
18201;BME280;9226;47.858;9.594;2023-03-21T06:52:57;95291.31;;;10.82;66.67
18201;BME280;9226;47.858;9.594;2023-03-21T06:55:24;95292.06;;;10.94;66.43
18201;BME280;9226;47.858;9.594;2023-03-21T06:57:55;95299.25;;;11.03;66.25
18201;BME280;9226;47.858;9.594;2023-03-21T07:00:21;95297.22;;;11.16;65.88
18201;BME280;9226;47.858;9.594;2023-03-21T07:02:48;95296.50;;;11.35;65.79
18201;BME280;9226;47.858;9.594;2023-03-21T07:05:14;95291.81;;;11.58;65.56
18201;BME280;9226;47.858;9.594;2023-03-21T07:07:40;95300.28;;;11.73;65.25
18201;BME280;9226;47.858;9.594;2023-03-21T07:10:06;95301.16;;;11.93;64.81
18201;BME280;9226;47.858;9.594;2023-03-21T07:12:32;95297.44;;;12.16;64.17
18201;BME280;9226;47.858;9.594;2023-03-21T07:14:58;95294.09;;;12.33;63.58
18201;BME280;9226;47.858;9.594;2023-03-21T07:17:24;95290.59;;;12.52;63.04
18201;BME280;9226;47.858;9.594;2023-03-21T07:19:49;95295.50;;;12.57;62.17
18201;BME280;9226;47.858;9.594;2023-03-21T07:22:15;95292.41;;;12.61;61.63
18201;BME280;9226;47.858;9.594;2023-03-21T07:24:40;95289.75;;;12.52;61.79
18201;BME280;9226;47.858;9.594;2023-03-21T07:27:06;95290.72;;;12.80;61.43
18201;BME280;9226;47.858;9.594;2023-03-21T07:29:31;95291.53;;;13.00;60.95
18201;BME280;9226;47.858;9.594;2023-03-21T07:31:57;95289.41;;;13.13;60.47
18201;BME280;9226;47.858;9.594;2023-03-21T07:34:22;95300.59;;;13.27;60.51
18201;BME280;9226;47.858;9.594;2023-03-21T07:36:47;95297.06;;;13.26;60.75
18201;BME280;9226;47.858;9.594;2023-03-21T07:39:13;95291.44;;;13.29;60.12
18201;BME280;9226;47.858;9.594;2023-03-21T07:41:38;95289.50;;;13.69;60.52
18201;BME280;9226;47.858;9.594;2023-03-21T07:44:04;95295.16;;;14.11;59.99
18201;BME280;9226;47.858;9.594;2023-03-21T07:46:29;95294.34;;;14.83;60.11
18201;BME280;9226;47.858;9.594;2023-03-21T07:48:54;95292.00;;;15.77;58.16
18201;BME280;9226;47.858;9.594;2023-03-21T07:51:20;95293.25;;;17.07;56.63
18201;BME280;9226;47.858;9.594;2023-03-21T07:53:45;95296.00;;;18.19;51.98
18201;BME280;9226;47.858;9.594;2023-03-21T07:56:13;95286.13;;;19.65;47.87
18201;BME280;9226;47.858;9.594;2023-03-21T07:58:38;95279.28;;;21.24;46.55
18201;BME280;9226;47.858;9.594;2023-03-21T08:01:04;95285.50;;;22.16;42.45
18201;BME280;9226;47.858;9.594;2023-03-21T08:03:29;95276.44;;;23.19;39.98
18201;BME280;9226;47.858;9.594;2023-03-21T08:05:58;95281.50;;;24.27;38.36
18201;BME280;9226;47.858;9.594;2023-03-21T08:08:25;95277.06;;;25.17;36.59
18201;BME280;9226;47.858;9.594;2023-03-21T08:10:50;95271.44;;;26.12;34.48
18201;BME280;9226;47.858;9.594;2023-03-21T08:13:15;95272.53;;;26.79;33.56
18201;BME280;9226;47.858;9.594;2023-03-21T08:15:41;95277.75;;;27.11;32.06
18201;BME280;9226;47.858;9.594;2023-03-21T08:18:07;95271.44;;;28.11;30.57
18201;BME280;9226;47.858;9.594;2023-03-21T08:20:33;95271.56;;;27.93;29.68
18201;BME280;9226;47.858;9.594;2023-03-21T08:22:58;95270.94;;;29.08;29.34
18201;BME280;9226;47.858;9.594;2023-03-21T08:25:23;95265.22;;;29.55;28.75
18201;BME280;9226;47.858;9.594;2023-03-21T08:27:49;95266.72;;;29.80;26.66
18201;BME280;9226;47.858;9.594;2023-03-21T08:30:21;95264.38;;;29.71;27.52
18201;BME280;9226;47.858;9.594;2023-03-21T08:32:47;95271.91;;;30.37;26.33
18201;BME280;9226;47.858;9.594;2023-03-21T08:35:15;95274.66;;;30.81;26.26
18201;BME280;9226;47.858;9.594;2023-03-21T08:37:42;95268.47;;;30.91;25.84
18201;BME280;9226;47.858;9.594;2023-03-21T08:40:11;95269.63;;;30.73;24.36
18201;BME280;9226;47.858;9.594;2023-03-21T08:42:38;95259.81;;;31.91;24.16
18201;BME280;9226;47.858;9.594;2023-03-21T08:45:04;95264.50;;;32.39;24.17
18201;BME280;9226;47.858;9.594;2023-03-21T08:47:30;95257.88;;;32.30;22.80
18201;BME280;9226;47.858;9.594;2023-03-21T08:49:56;95262.34;;;31.06;22.71
18201;BME280;9226;47.858;9.594;2023-03-21T08:52:21;95264.22;;;28.69;24.66
18201;BME280;9226;47.858;9.594;2023-03-21T08:54:47;95260.53;;;27.88;26.43
18201;BME280;9226;47.858;9.594;2023-03-21T08:57:13;95260.09;;;26.71;27.49
18201;BME280;9226;47.858;9.594;2023-03-21T08:59:39;95251.59;;;25.18;29.81
18201;BME280;9226;47.858;9.594;2023-03-21T09:02:05;95254.63;;;24.19;30.79
18201;BME280;9226;47.858;9.594;2023-03-21T09:04:30;95255.41;;;23.21;32.24
18201;BME280;9226;47.858;9.594;2023-03-21T09:06:56;95254.25;;;22.48;33.15
18201;BME280;9226;47.858;9.594;2023-03-21T09:09:22;95264.81;;;22.30;33.31
18201;BME280;9226;47.858;9.594;2023-03-21T09:11:47;95263.47;;;22.81;33.35
18201;BME280;9226;47.858;9.594;2023-03-21T09:14:13;95261.78;;;22.66;33.79
18201;BME280;9226;47.858;9.594;2023-03-21T09:16:38;95258.91;;;22.81;33.71
18201;BME280;9226;47.858;9.594;2023-03-21T09:19:05;95253.22;;;22.63;34.09
18201;BME280;9226;47.858;9.594;2023-03-21T09:21:33;95255.22;;;23.09;33.06
18201;BME280;9226;47.858;9.594;2023-03-21T09:23:59;95242.28;;;23.44;32.54
18201;BME280;9226;47.858;9.594;2023-03-21T09:26:25;95239.72;;;23.76;31.51
18201;BME280;9226;47.858;9.594;2023-03-21T09:28:53;95242.22;;;23.91;31.67
18201;BME280;9226;47.858;9.594;2023-03-21T09:31:19;95238.34;;;24.26;31.84
18201;BME280;9226;47.858;9.594;2023-03-21T09:33:49;95243.22;;;24.62;31.31
18201;BME280;9226;47.858;9.594;2023-03-21T09:36:16;95237.59;;;24.89;30.84
18201;BME280;9226;47.858;9.594;2023-03-21T09:38:44;95241.16;;;24.58;30.83
18201;BME280;9226;47.858;9.594;2023-03-21T09:41:40;95239.47;;;24.56;30.21
18201;BME280;9226;47.858;9.594;2023-03-21T09:49:49;95230.69;;;24.61;31.21
18201;BME280;9226;47.858;9.594;2023-03-21T09:52:21;95230.38;;;24.76;28.80
18201;BME280;9226;47.858;9.594;2023-03-21T09:54:48;95222.69;;;25.74;29.27
18201;BME280;9226;47.858;9.594;2023-03-21T09:59:55;95220.69;;;26.25;28.50
18201;BME280;9226;47.858;9.594;2023-03-21T10:05:01;95227.56;;;25.90;28.08
18201;BME280;9226;47.858;9.594;2023-03-21T10:07:30;95222.94;;;25.91;28.47
18201;BME280;9226;47.858;9.594;2023-03-21T10:09:59;95219.19;;;26.10;27.24
18201;BME280;9226;47.858;9.594;2023-03-21T10:12:28;95216.00;;;25.33;28.66
18201;BME280;9226;47.858;9.594;2023-03-21T10:14:57;95219.47;;;25.15;28.65
18201;BME280;9226;47.858;9.594;2023-03-21T10:17:39;95215.19;;;24.68;28.38
18201;BME280;9226;47.858;9.594;2023-03-21T10:20:16;95220.19;;;25.03;28.86
18201;BME280;9226;47.858;9.594;2023-03-21T10:22:44;95208.91;;;25.25;29.24
18201;BME280;9226;47.858;9.594;2023-03-21T10:25:14;95213.16;;;24.89;29.11
18201;BME280;9226;47.858;9.594;2023-03-21T10:27:40;95216.72;;;25.46;29.53
18201;BME280;9226;47.858;9.594;2023-03-21T10:30:07;95214.53;;;25.30;28.48
18201;BME280;9226;47.858;9.594;2023-03-21T10:32:35;95213.91;;;25.53;28.69
18201;BME280;9226;47.858;9.594;2023-03-21T10:35:01;95208.75;;;25.89;28.33
18201;BME280;9226;47.858;9.594;2023-03-21T10:37:29;95211.94;;;26.53;28.37
18201;BME280;9226;47.858;9.594;2023-03-21T10:39:56;95204.88;;;26.64;27.96
18201;BME280;9226;47.858;9.594;2023-03-21T10:42:29;95209.00;;;26.54;27.95
18201;BME280;9226;47.858;9.594;2023-03-21T10:44:57;95205.53;;;26.47;28.20
18201;BME280;9226;47.858;9.594;2023-03-21T10:47:26;95201.88;;;26.23;27.95
18201;BME280;9226;47.858;9.594;2023-03-21T10:49:52;95197.22;;;26.42;28.28
18201;BME280;9226;47.858;9.594;2023-03-21T10:52:21;95199.19;;;26.53;28.46
18201;BME280;9226;47.858;9.594;2023-03-21T10:54:47;95190.44;;;27.05;27.70
18201;BME280;9226;47.858;9.594;2023-03-21T10:57:20;95199.91;;;26.91;27.19
18201;BME280;9226;47.858;9.594;2023-03-21T11:02:38;95196.50;;;27.19;26.82
18201;BME280;9226;47.858;9.594;2023-03-21T11:05:07;95192.66;;;26.85;27.29
18201;BME280;9226;47.858;9.594;2023-03-21T11:07:34;95196.16;;;27.16;26.88
18201;BME280;9226;47.858;9.594;2023-03-21T11:10:12;95197.34;;;26.66;26.59
18201;BME280;9226;47.858;9.594;2023-03-21T11:12:40;95196.94;;;26.81;26.98
18201;BME280;9226;47.858;9.594;2023-03-21T11:15:37;95193.44;;;26.43;26.50
18201;BME280;9226;47.858;9.594;2023-03-21T11:18:17;95195.78;;;26.88;26.94
18201;BME280;9226;47.858;9.594;2023-03-21T11:20:54;95197.78;;;26.63;26.95
18201;BME280;9226;47.858;9.594;2023-03-21T11:23:25;95197.56;;;26.15;27.38
18201;BME280;9226;47.858;9.594;2023-03-21T11:25:51;95189.72;;;26.26;27.63
18201;BME280;9226;47.858;9.594;2023-03-21T11:28:21;95185.34;;;25.88;27.81
18201;BME280;9226;47.858;9.594;2023-03-21T11:30:59;95188.22;;;24.42;28.99
18201;BME280;9226;47.858;9.594;2023-03-21T11:33:34;95182.28;;;24.90;29.05
18201;BME280;9226;47.858;9.594;2023-03-21T11:36:25;95183.13;;;24.20;30.08
18201;BME280;9226;47.858;9.594;2023-03-21T11:41:33;95174.59;;;24.10;30.95
18201;BME280;9226;47.858;9.594;2023-03-21T11:44:01;95163.41;;;23.99;31.33
18201;BME280;9226;47.858;9.594;2023-03-21T11:46:29;95167.59;;;23.95;30.80
18201;BME280;9226;47.858;9.594;2023-03-21T11:48:57;95168.88;;;23.86;30.54
18201;BME280;9226;47.858;9.594;2023-03-21T11:54:17;95165.00;;;23.55;29.49
18201;BME280;9226;47.858;9.594;2023-03-21T11:56:50;95156.09;;;23.35;30.93
18201;BME280;9226;47.858;9.594;2023-03-21T12:05:27;95156.72;;;23.03;29.68
18201;BME280;9226;47.858;9.594;2023-03-21T12:08:12;95153.59;;;22.39;30.30
18201;BME280;9226;47.858;9.594;2023-03-21T12:10:49;95148.19;;;22.53;30.93
18201;BME280;9226;47.858;9.594;2023-03-21T12:16:00;95137.81;;;22.70;31.53
18201;BME280;9226;47.858;9.594;2023-03-21T12:21:19;95131.34;;;22.84;31.38
18201;BME280;9226;47.858;9.594;2023-03-21T12:23:59;95131.78;;;22.81;31.10
18201;BME280;9226;47.858;9.594;2023-03-21T12:32:02;95126.97;;;22.30;30.90
18201;BME280;9226;47.858;9.594;2023-03-21T12:46:02;95104.22;;;21.97;31.96
18201;BME280;9226;47.858;9.594;2023-03-21T12:48:48;95101.50;;;21.91;32.21
18201;BME280;9226;47.858;9.594;2023-03-21T12:51:18;95101.69;;;21.82;31.98
18201;BME280;9226;47.858;9.594;2023-03-21T12:53:59;95096.25;;;21.34;31.49
18201;BME280;9226;47.858;9.594;2023-03-21T12:56:51;95099.84;;;21.41;32.55
18201;BME280;9226;47.858;9.594;2023-03-21T12:59:21;95094.13;;;21.23;32.29
18201;BME280;9226;47.858;9.594;2023-03-21T13:01:52;95093.75;;;21.26;31.88
18201;BME280;9226;47.858;9.594;2023-03-21T13:04:33;95093.25;;;21.15;32.27
18201;BME280;9226;47.858;9.594;2023-03-21T13:07:03;95091.72;;;20.71;32.26
18201;BME280;9226;47.858;9.594;2023-03-21T13:09:40;95093.22;;;20.52;32.92
18201;BME280;9226;47.858;9.594;2023-03-21T13:12:38;95093.31;;;20.37;33.61
18201;BME280;9226;47.858;9.594;2023-03-21T13:15:29;95083.06;;;20.26;33.85
18201;BME280;9226;47.858;9.594;2023-03-21T13:18:11;95086.78;;;20.03;34.07
18201;BME280;9226;47.858;9.594;2023-03-21T13:20:45;95083.63;;;19.63;34.75
18201;BME280;9226;47.858;9.594;2023-03-21T13:23:12;95077.88;;;19.30;35.38
18201;BME280;9226;47.858;9.594;2023-03-21T13:25:42;95077.50;;;19.33;35.59
18201;BME280;9226;47.858;9.594;2023-03-21T13:28:18;95076.28;;;19.36;35.98
18201;BME280;9226;47.858;9.594;2023-03-21T13:30:44;95078.88;;;19.44;36.19
18201;BME280;9226;47.858;9.594;2023-03-21T13:35:54;95074.53;;;19.28;35.95
18201;BME280;9226;47.858;9.594;2023-03-21T13:38:27;95067.66;;;19.25;36.19
18201;BME280;9226;47.858;9.594;2023-03-21T13:43:50;95066.00;;;18.79;37.17
18201;BME280;9226;47.858;9.594;2023-03-21T13:49:12;95060.81;;;19.23;37.07
18201;BME280;9226;47.858;9.594;2023-03-21T13:51:51;95057.78;;;19.11;37.33
18201;BME280;9226;47.858;9.594;2023-03-21T13:55:10;95059.97;;;19.37;37.07
18201;BME280;9226;47.858;9.594;2023-03-21T14:00:27;95050.16;;;19.51;36.73
18201;BME280;9226;47.858;9.594;2023-03-21T14:05:32;95046.59;;;19.65;36.18
18201;BME280;9226;47.858;9.594;2023-03-21T14:08:25;95041.31;;;19.94;36.22
18201;BME280;9226;47.858;9.594;2023-03-21T14:10:55;95035.22;;;20.06;35.62
18201;BME280;9226;47.858;9.594;2023-03-21T14:13:25;95046.75;;;20.22;35.78
18201;BME280;9226;47.858;9.594;2023-03-21T14:15:53;95044.28;;;19.77;35.30
18201;BME280;9226;47.858;9.594;2023-03-21T14:18:20;95045.59;;;19.66;36.15
18201;BME280;9226;47.858;9.594;2023-03-21T14:20:54;95041.72;;;19.54;35.91
18201;BME280;9226;47.858;9.594;2023-03-21T14:23:20;95050.28;;;19.43;36.04
18201;BME280;9226;47.858;9.594;2023-03-21T14:25:46;95040.81;;;19.47;35.66
18201;BME280;9226;47.858;9.594;2023-03-21T14:28:25;95049.41;;;19.36;35.70
18201;BME280;9226;47.858;9.594;2023-03-21T14:30:57;95035.13;;;19.57;35.80
18201;BME280;9226;47.858;9.594;2023-03-21T14:33:31;95028.53;;;19.23;36.05
18201;BME280;9226;47.858;9.594;2023-03-21T14:35:58;95024.00;;;19.23;35.93
18201;BME280;9226;47.858;9.594;2023-03-21T14:38:27;95027.44;;;19.02;36.14
18201;BME280;9226;47.858;9.594;2023-03-21T14:40:56;95020.91;;;18.90;36.66
18201;BME280;9226;47.858;9.594;2023-03-21T14:43:23;95016.09;;;18.85;36.49
18201;BME280;9226;47.858;9.594;2023-03-21T14:45:51;95011.78;;;18.76;36.64
18201;BME280;9226;47.858;9.594;2023-03-21T14:48:18;95013.91;;;18.51;36.85
18201;BME280;9226;47.858;9.594;2023-03-21T14:53:20;95000.56;;;18.42;37.39
18201;BME280;9226;47.858;9.594;2023-03-21T14:58:17;95009.63;;;18.41;37.82
18201;BME280;9226;47.858;9.594;2023-03-21T15:00:47;95006.19;;;18.33;37.35
18201;BME280;9226;47.858;9.594;2023-03-21T15:03:16;95011.88;;;18.38;37.05
18201;BME280;9226;47.858;9.594;2023-03-21T15:05:42;95005.09;;;18.42;37.35